Water Valley, Texas
Current Conditions -  °F | °C
As of 8:51 AM on Thursday 23 Oct 2014 (Local Time) from KSJT Reporting Station
Overcast Overcast  
Wind Chill: 14°   Ceiling: 4500
Heat Index: 14°   Visibility: 10mi
Dew Point: 13°   Wind: 3mph
Humidity: 93%   Direction: 180°S
Pressure: 30.15"   Gusts: NA
Location:  31.67°N, 100.72°W
Report Text: KSJT 231351Z 18003KT 10SM OVC045 14/13 A3015 RMK AO2 SLP198 T01390128
Loading
Personal Weather Stations






























Interactive Weather Map
Tropical Storm Tracking
New forecast layout! Learn more

10-Day Weather Forecast

Advertisements
Track Severe Weather on mobile